Strona główna
METAR-TAF:

METAR-TAF

Lotnisko :

Port lotniczy Nawakszut

Nawakszut, Mauretania

Szerokość geograficzna: 18-18-36N, Długość geograficzna: 015-58-11W, wysokość: 3 m

Aktualna obserwacja pogody

Raport powstał 25 minut temu, godzina 20:00 UTC
Wiatr 9 kt od północno-północny wschód
Temperatura 23°C
Wilgotność 31%
Ciśnienie 1015 hPa
Widzialność: 8000 m

METAR: GQNO 072000Z 02009KT 8000 NSC 23/05 Q1015 NOSIG

czas: 20:25 (20:25 UTC)

Prognoza

Raport powstał 3 godziny i 25 minut temu, godzina 17:00 UTC
Prognoza ważna od 07 godzina 18 UTC do 08 godzina 24 UTC
Wiatr 12 kt od północno-północny wschód
Widzialność: 7000 m

TAF: GQNO 071700Z 0718/0824 03012KT 7000 NSC

Obserwacja i prognoza pogody dla ponad 4000 lotnisk (raport METAR i TAF).

Dostępne stacje oznaczono żółtymi i czerwonymi punktami na mapie.

Najedź kursorem aby zobaczyć nazwę stacji.

Kliknij aby zobaczyć obserwacje i prognozy pogody.

Aby zmienić mapę: kliknij na zielony przycisk z czarnym krzyżykiem, aby powiększyć; na zielony przycisk z myślnikiem, aby pomniejszyć; na zielone strzałki, aby przejść do map sąsiednich.


METAR-TAF: